sensor_id;sensor_type;location;lat;lon;timestamp;pressure;altitude;pressure_sealevel;temperature;humidity
17362;BME280;8798;51.938;4.348;2023-11-18T00:00:12;102137.97;;;8.80;85.44
17362;BME280;8798;51.938;4.348;2023-11-18T00:02:43;102137.13;;;8.79;85.46
17362;BME280;8798;51.938;4.348;2023-11-18T00:05:11;102125.78;;;8.76;85.54
17362;BME280;8798;51.938;4.348;2023-11-18T00:07:40;102116.91;;;8.75;85.63
17362;BME280;8798;51.938;4.348;2023-11-18T00:10:09;102117.94;;;8.73;85.82
17362;BME280;8798;51.938;4.348;2023-11-18T00:12:37;102103.81;;;8.71;85.53
17362;BME280;8798;51.938;4.348;2023-11-18T00:15:09;102094.28;;;8.67;85.60
17362;BME280;8798;51.938;4.348;2023-11-18T00:17:38;102079.38;;;8.63;85.75
17362;BME280;8798;51.938;4.348;2023-11-18T00:20:08;102068.03;;;8.59;85.94
17362;BME280;8798;51.938;4.348;2023-11-18T00:22:39;102056.66;;;8.55;85.76
17362;BME280;8798;51.938;4.348;2023-11-18T00:25:09;102053.28;;;8.53;85.66
17362;BME280;8798;51.938;4.348;2023-11-18T00:27:38;102048.00;;;8.52;85.70
17362;BME280;8798;51.938;4.348;2023-11-18T00:30:08;102056.91;;;8.52;85.70
17362;BME280;8798;51.938;4.348;2023-11-18T00:32:38;102065.78;;;8.53;85.45
17362;BME280;8798;51.938;4.348;2023-11-18T00:35:07;102071.03;;;8.54;85.25
17362;BME280;8798;51.938;4.348;2023-11-18T00:37:37;102085.19;;;8.56;85.59
17362;BME280;8798;51.938;4.348;2023-11-18T00:40:06;102092.25;;;8.57;85.93
17362;BME280;8798;51.938;4.348;2023-11-18T00:42:35;102103.59;;;8.61;85.46
17362;BME280;8798;51.938;4.348;2023-11-18T00:45:03;102126.63;;;8.64;85.60
17362;BME280;8798;51.938;4.348;2023-11-18T00:47:33;102130.06;;;8.66;85.55
17362;BME280;8798;51.938;4.348;2023-11-18T00:50:01;102146.88;;;8.68;85.39
17362;BME280;8798;51.938;4.348;2023-11-18T00:52:30;102156.63;;;8.69;85.48
17362;BME280;8798;51.938;4.348;2023-11-18T00:54:58;102167.22;;;8.70;85.26
17362;BME280;8798;51.938;4.348;2023-11-18T00:57:26;102168.97;;;8.71;85.56
17362;BME280;8798;51.938;4.348;2023-11-18T00:59:54;102184.81;;;8.74;85.59
17362;BME280;8798;51.938;4.348;2023-11-18T01:02:22;102196.28;;;8.76;85.50
17362;BME280;8798;51.938;4.348;2023-11-18T01:04:51;102203.25;;;8.79;85.75
17362;BME280;8798;51.938;4.348;2023-11-18T01:07:19;102221.78;;;8.82;85.58
17362;BME280;8798;51.938;4.348;2023-11-18T01:09:47;102232.41;;;8.83;85.39
17362;BME280;8798;51.938;4.348;2023-11-18T01:12:15;102232.28;;;8.85;85.63
17362;BME280;8798;51.938;4.348;2023-11-18T01:14:43;102242.06;;;8.86;85.60
17362;BME280;8798;51.938;4.348;2023-11-18T01:17:11;102260.59;;;8.89;85.62
17362;BME280;8798;51.938;4.348;2023-11-18T01:19:40;102256.09;;;8.90;85.37
17362;BME280;8798;51.938;4.348;2023-11-18T01:22:11;102262.31;;;8.90;85.59
17362;BME280;8798;51.938;4.348;2023-11-18T01:24:40;102274.66;;;8.93;86.13
17362;BME280;8798;51.938;4.348;2023-11-18T01:27:08;102283.41;;;8.95;85.97
17362;BME280;8798;51.938;4.348;2023-11-18T01:29:37;102296.72;;;8.96;85.95
17362;BME280;8798;51.938;4.348;2023-11-18T01:32:05;102297.56;;;8.97;85.45
17362;BME280;8798;51.938;4.348;2023-11-18T01:34:36;102306.38;;;8.99;85.50
17362;BME280;8798;51.938;4.348;2023-11-18T01:37:06;102310.03;;;8.98;85.50
17362;BME280;8798;51.938;4.348;2023-11-18T01:39:35;102303.78;;;8.97;85.59
17362;BME280;8798;51.938;4.348;2023-11-18T01:42:04;102299.41;;;8.96;85.85
17362;BME280;8798;51.938;4.348;2023-11-18T01:44:32;102299.41;;;8.96;85.52
17362;BME280;8798;51.938;4.348;2023-11-18T01:47:02;102303.78;;;8.97;85.51
17362;BME280;8798;51.938;4.348;2023-11-18T01:49:34;102314.31;;;9.00;85.64
17362;BME280;8798;51.938;4.348;2023-11-18T01:52:07;102323.22;;;9.01;85.86
17362;BME280;8798;51.938;4.348;2023-11-18T01:54:38;102310.75;;;9.00;85.48
17362;BME280;8798;51.938;4.348;2023-11-18T01:57:06;102314.41;;;8.99;85.51
17362;BME280;8798;51.938;4.348;2023-11-18T01:59:36;102317.94;;;8.99;85.82
17362;BME280;8798;51.938;4.348;2023-11-18T02:02:04;102318.94;;;8.98;85.78
17362;BME280;8798;51.938;4.348;2023-11-18T02:04:33;102315.41;;;8.98;85.70
17362;BME280;8798;51.938;4.348;2023-11-18T02:07:01;102311.75;;;8.99;85.49
17362;BME280;8798;51.938;4.348;2023-11-18T02:09:37;102310.88;;;8.98;85.59
17362;BME280;8798;51.938;4.348;2023-11-18T02:12:15;102321.47;;;9.00;85.59
17362;BME280;8798;51.938;4.348;2023-11-18T02:14:44;102325.78;;;9.02;85.85
17362;BME280;8798;51.938;4.348;2023-11-18T02:17:14;102328.56;;;9.01;85.49
17362;BME280;8798;51.938;4.348;2023-11-18T02:19:45;102315.41;;;8.98;85.32
17362;BME280;8798;51.938;4.348;2023-11-18T02:22:13;102310.13;;;8.96;85.82
17362;BME280;8798;51.938;4.348;2023-11-18T02:24:42;102304.00;;;8.94;85.41
17362;BME280;8798;51.938;4.348;2023-11-18T02:27:12;102299.63;;;8.93;85.27
17362;BME280;8798;51.938;4.348;2023-11-18T02:29:42;102292.53;;;8.92;85.18
17362;BME280;8798;51.938;4.348;2023-11-18T02:32:18;102282.69;;;8.93;85.49
17362;BME280;8798;51.938;4.348;2023-11-18T02:34:55;102286.53;;;8.89;85.36
17362;BME280;8798;51.938;4.348;2023-11-18T02:37:25;102271.41;;;8.88;85.86
17362;BME280;8798;51.938;4.348;2023-11-18T02:40:03;102263.50;;;8.86;85.33
17362;BME280;8798;51.938;4.348;2023-11-18T02:42:37;102259.06;;;8.85;85.43
17362;BME280;8798;51.938;4.348;2023-11-18T02:45:07;102267.13;;;8.85;85.11
17362;BME280;8798;51.938;4.348;2023-11-18T02:47:39;102260.91;;;8.85;85.95
17362;BME280;8798;51.938;4.348;2023-11-18T02:50:08;102257.38;;;8.84;85.19
17362;BME280;8798;51.938;4.348;2023-11-18T02:52:37;102260.06;;;8.84;85.69
17362;BME280;8798;51.938;4.348;2023-11-18T02:55:06;102261.88;;;8.83;85.33
17362;BME280;8798;51.938;4.348;2023-11-18T02:57:37;102256.63;;;8.82;85.19
17362;BME280;8798;51.938;4.348;2023-11-18T03:00:06;102263.72;;;8.83;85.46
17362;BME280;8798;51.938;4.348;2023-11-18T03:02:38;102252.22;;;8.81;85.51
17362;BME280;8798;51.938;4.348;2023-11-18T03:05:07;102246.88;;;8.81;85.74
17362;BME280;8798;51.938;4.348;2023-11-18T03:07:39;102240.84;;;8.77;85.60
17362;BME280;8798;51.938;4.348;2023-11-18T03:10:10;102241.75;;;8.78;85.49
17362;BME280;8798;51.938;4.348;2023-11-18T03:12:41;102245.25;;;8.78;85.39
17362;BME280;8798;51.938;4.348;2023-11-18T03:15:09;102236.47;;;8.76;85.54
17362;BME280;8798;51.938;4.348;2023-11-18T03:17:38;102239.16;;;8.76;85.71
17362;BME280;8798;51.938;4.348;2023-11-18T03:20:07;102228.44;;;8.76;85.31
17362;BME280;8798;51.938;4.348;2023-11-18T03:22:35;102237.44;;;8.75;85.50
17362;BME280;8798;51.938;4.348;2023-11-18T03:25:04;102235.63;;;8.76;85.37
17362;BME280;8798;51.938;4.348;2023-11-18T03:27:34;102230.25;;;8.76;85.45
17362;BME280;8798;51.938;4.348;2023-11-18T03:30:04;102230.34;;;8.74;85.09
17362;BME280;8798;51.938;4.348;2023-11-18T03:32:33;102228.53;;;8.75;85.79
17362;BME280;8798;51.938;4.348;2023-11-18T03:35:01;102225.09;;;8.73;85.77
17362;BME280;8798;51.938;4.348;2023-11-18T03:37:31;102225.09;;;8.73;85.31
17362;BME280;8798;51.938;4.348;2023-11-18T03:39:59;102229.59;;;8.72;85.28
17362;BME280;8798;51.938;4.348;2023-11-18T03:42:27;102225.22;;;8.71;85.64
17362;BME280;8798;51.938;4.348;2023-11-18T03:44:55;102220.72;;;8.72;85.29
17362;BME280;8798;51.938;4.348;2023-11-18T03:47:25;102214.50;;;8.71;85.20
17362;BME280;8798;51.938;4.348;2023-11-18T03:49:53;102227.03;;;8.71;85.02
17362;BME280;8798;51.938;4.348;2023-11-18T03:52:21;102224.25;;;8.72;85.34
17362;BME280;8798;51.938;4.348;2023-11-18T03:54:49;102210.09;;;8.70;85.21
17362;BME280;8798;51.938;4.348;2023-11-18T03:57:19;102207.63;;;8.67;85.31
17362;BME280;8798;51.938;4.348;2023-11-18T03:59:47;102211.16;;;8.68;85.09
17362;BME280;8798;51.938;4.348;2023-11-18T04:02:15;102203.13;;;8.68;85.47
17362;BME280;8798;51.938;4.348;2023-11-18T04:04:44;102200.56;;;8.66;85.18
17362;BME280;8798;51.938;4.348;2023-11-18T04:07:12;102204.94;;;8.67;85.10
17362;BME280;8798;51.938;4.348;2023-11-18T04:09:40;102190.81;;;8.65;84.89
17362;BME280;8798;51.938;4.348;2023-11-18T04:12:10;102188.25;;;8.64;85.24
17362;BME280;8798;51.938;4.348;2023-11-18T04:14:38;102182.88;;;8.64;85.27
17362;BME280;8798;51.938;4.348;2023-11-18T04:17:06;102200.44;;;8.68;84.81
17362;BME280;8798;51.938;4.348;2023-11-18T04:19:34;102205.81;;;8.68;85.04
17362;BME280;8798;51.938;4.348;2023-11-18T04:22:04;102198.84;;;8.65;85.36
17362;BME280;8798;51.938;4.348;2023-11-18T04:24:32;102197.03;;;8.66;84.87
17362;BME280;8798;51.938;4.348;2023-11-18T04:27:01;102194.34;;;8.66;85.08
17362;BME280;8798;51.938;4.348;2023-11-18T04:29:29;102195.31;;;8.65;84.93
17362;BME280;8798;51.938;4.348;2023-11-18T04:31:57;102197.88;;;8.66;84.96
17362;BME280;8798;51.938;4.348;2023-11-18T04:34:26;102204.94;;;8.67;84.93
17362;BME280;8798;51.938;4.348;2023-11-18T04:36:54;102207.53;;;8.69;84.80
17362;BME280;8798;51.938;4.348;2023-11-18T04:39:23;102209.22;;;8.70;85.34
17362;BME280;8798;51.938;4.348;2023-11-18T04:41:52;102214.59;;;8.70;85.28
17362;BME280;8798;51.938;4.348;2023-11-18T04:44:20;102217.19;;;8.71;84.64
17362;BME280;8798;51.938;4.348;2023-11-18T04:46:49;102225.97;;;8.73;84.86
17362;BME280;8798;51.938;4.348;2023-11-18T04:49:17;102226.81;;;8.74;85.03
17362;BME280;8798;51.938;4.348;2023-11-18T04:51:45;102230.34;;;8.74;84.99
17362;BME280;8798;51.938;4.348;2023-11-18T04:54:13;102219.72;;;8.73;84.96
17362;BME280;8798;51.938;4.348;2023-11-18T04:56:43;102215.25;;;8.73;84.93
17362;BME280;8798;51.938;4.348;2023-11-18T04:59:13;102230.25;;;8.76;84.71
17362;BME280;8798;51.938;4.348;2023-11-18T05:01:41;102241.75;;;8.78;84.72
17362;BME280;8798;51.938;4.348;2023-11-18T05:04:09;102246.97;;;8.79;85.04
17362;BME280;8798;51.938;4.348;2023-11-18T05:06:37;102248.69;;;8.80;85.05
17362;BME280;8798;51.938;4.348;2023-11-18T05:09:05;102248.69;;;8.80;84.38
17362;BME280;8798;51.938;4.348;2023-11-18T05:11:34;102258.34;;;8.83;85.00
17362;BME280;8798;51.938;4.348;2023-11-18T05:14:03;102260.91;;;8.85;84.49
17362;BME280;8798;51.938;4.348;2023-11-18T05:16:33;102257.38;;;8.84;84.84
17362;BME280;8798;51.938;4.348;2023-11-18T05:19:01;102254.69;;;8.84;84.66
17362;BME280;8798;51.938;4.348;2023-11-18T05:21:29;102256.41;;;8.85;84.69
17362;BME280;8798;51.938;4.348;2023-11-18T05:23:57;102249.34;;;8.84;84.99
17362;BME280;8798;51.938;4.348;2023-11-18T05:26:25;102256.41;;;8.85;84.53
17362;BME280;8798;51.938;4.348;2023-11-18T05:28:53;102248.34;;;8.85;84.84
17362;BME280;8798;51.938;4.348;2023-11-18T05:31:23;102239.59;;;8.83;84.36
17362;BME280;8798;51.938;4.348;2023-11-18T05:33:51;102232.63;;;8.80;84.49
17362;BME280;8798;51.938;4.348;2023-11-18T05:36:22;102229.06;;;8.80;84.53
17362;BME280;8798;51.938;4.348;2023-11-18T05:38:54;102215.88;;;8.77;84.79
17362;BME280;8798;51.938;4.348;2023-11-18T05:41:22;102205.31;;;8.75;84.17
17362;BME280;8798;51.938;4.348;2023-11-18T05:43:54;102192.09;;;8.72;84.36
17362;BME280;8798;51.938;4.348;2023-11-18T05:46:25;102185.03;;;8.71;84.15
17362;BME280;8798;51.938;4.348;2023-11-18T05:48:57;102179.78;;;8.70;84.69
17362;BME280;8798;51.938;4.348;2023-11-18T05:51:26;102168.31;;;8.68;84.19
17362;BME280;8798;51.938;4.348;2023-11-18T05:53:55;102165.63;;;8.68;84.19
17362;BME280;8798;51.938;4.348;2023-11-18T05:56:23;102169.19;;;8.68;84.39
17362;BME280;8798;51.938;4.348;2023-11-18T05:58:52;102181.50;;;8.71;84.65
17362;BME280;8798;51.938;4.348;2023-11-18T06:01:21;102171.72;;;8.70;84.75
17362;BME280;8798;51.938;4.348;2023-11-18T06:03:51;102172.72;;;8.69;84.09
17362;BME280;8798;51.938;4.348;2023-11-18T06:06:19;102154.91;;;8.68;84.47
17362;BME280;8798;51.938;4.348;2023-11-18T06:08:50;102155.13;;;8.65;84.20
17362;BME280;8798;51.938;4.348;2023-11-18T06:11:19;102148.06;;;8.64;84.57
17362;BME280;8798;51.938;4.348;2023-11-18T06:13:49;102140.13;;;8.62;84.27
17362;BME280;8798;51.938;4.348;2023-11-18T06:16:18;102141.84;;;8.63;84.28
17362;BME280;8798;51.938;4.348;2023-11-18T06:18:49;102136.50;;;8.63;84.63
17362;BME280;8798;51.938;4.348;2023-11-18T06:21:19;102128.66;;;8.60;84.09
17362;BME280;8798;51.938;4.348;2023-11-18T06:23:51;102112.72;;;8.58;83.98
17362;BME280;8798;51.938;4.348;2023-11-18T06:26:22;102110.03;;;8.58;84.03
17362;BME280;8798;51.938;4.348;2023-11-18T06:28:51;102108.22;;;8.59;84.33
17362;BME280;8798;51.938;4.348;2023-11-18T06:31:19;102111.75;;;8.59;84.32
17362;BME280;8798;51.938;4.348;2023-11-18T06:33:47;102102.94;;;8.57;83.97
17362;BME280;8798;51.938;4.348;2023-11-18T06:36:21;102101.34;;;8.55;84.34
17362;BME280;8798;51.938;4.348;2023-11-18T06:38:51;102094.16;;;8.55;84.06
17362;BME280;8798;51.938;4.348;2023-11-18T06:41:20;102094.16;;;8.55;84.40
17362;BME280;8798;51.938;4.348;2023-11-18T06:43:50;102101.25;;;8.56;84.18
17362;BME280;8798;51.938;4.348;2023-11-18T06:46:26;102104.78;;;8.57;83.99
17362;BME280;8798;51.938;4.348;2023-11-18T06:48:56;102108.22;;;8.59;84.33
17362;BME280;8798;51.938;4.348;2023-11-18T06:51:27;102117.84;;;8.61;84.27
17362;BME280;8798;51.938;4.348;2023-11-18T06:53:55;102122.97;;;8.65;83.70
17362;BME280;8798;51.938;4.348;2023-11-18T06:56:24;102142.59;;;8.65;84.08
17362;BME280;8798;51.938;4.348;2023-11-18T06:58:53;102148.81;;;8.66;84.33
17362;BME280;8798;51.938;4.348;2023-11-18T07:01:21;102140.78;;;8.66;84.10
17362;BME280;8798;51.938;4.348;2023-11-18T07:03:49;102136.16;;;8.68;84.36
17362;BME280;8798;51.938;4.348;2023-11-18T07:06:20;102143.13;;;8.70;84.28
17362;BME280;8798;51.938;4.348;2023-11-18T07:08:51;102158.34;;;8.70;84.37
17362;BME280;8798;51.938;4.348;2023-11-18T07:11:19;102159.09;;;8.72;84.09
17362;BME280;8798;51.938;4.348;2023-11-18T07:13:51;102159.94;;;8.72;83.99
17362;BME280;8798;51.938;4.348;2023-11-18T07:16:23;102159.84;;;8.74;83.90
17362;BME280;8798;51.938;4.348;2023-11-18T07:18:52;102162.63;;;8.72;84.01
17362;BME280;8798;51.938;4.348;2023-11-18T07:21:20;102159.84;;;8.74;83.82
17362;BME280;8798;51.938;4.348;2023-11-18T07:23:48;102163.28;;;8.76;84.26
17362;BME280;8798;51.938;4.348;2023-11-18T07:26:17;102165.84;;;8.77;83.89
17362;BME280;8798;51.938;4.348;2023-11-18T07:28:45;102180.97;;;8.78;83.99
17362;BME280;8798;51.938;4.348;2023-11-18T07:31:13;102180.84;;;8.80;84.09
17362;BME280;8798;51.938;4.348;2023-11-18T07:33:41;102188.78;;;8.81;83.83
17362;BME280;8798;51.938;4.348;2023-11-18T07:36:11;102191.25;;;8.85;84.03
17362;BME280;8798;51.938;4.348;2023-11-18T07:38:39;102193.81;;;8.86;83.57
17362;BME280;8798;51.938;4.348;2023-11-18T07:41:07;102207.97;;;8.88;83.97
17362;BME280;8798;51.938;4.348;2023-11-18T07:43:37;102215.03;;;8.89;83.92
17362;BME280;8798;51.938;4.348;2023-11-18T07:46:07;102207.84;;;8.90;84.17
17362;BME280;8798;51.938;4.348;2023-11-18T07:48:35;102213.13;;;8.91;83.57
17362;BME280;8798;51.938;4.348;2023-11-18T07:51:03;102214.09;;;8.90;84.14
17362;BME280;8798;51.938;4.348;2023-11-18T07:53:33;102195.44;;;8.89;83.81
17362;BME280;8798;51.938;4.348;2023-11-18T07:56:04;102183.19;;;8.85;84.10
17362;BME280;8798;51.938;4.348;2023-11-18T07:58:34;102163.69;;;8.82;83.73
17362;BME280;8798;51.938;4.348;2023-11-18T08:01:05;102155.88;;;8.79;83.76
17362;BME280;8798;51.938;4.348;2023-11-18T08:03:34;102133.69;;;8.77;83.83
17362;BME280;8798;51.938;4.348;2023-11-18T08:06:04;102121.50;;;8.73;83.58
17362;BME280;8798;51.938;4.348;2023-11-18T08:08:33;102111.72;;;8.72;83.50
17362;BME280;8798;51.938;4.348;2023-11-18T08:11:03;102110.03;;;8.71;83.75
17362;BME280;8798;51.938;4.348;2023-11-18T08:13:31;102095.88;;;8.69;83.49
17362;BME280;8798;51.938;4.348;2023-11-18T08:15:59;102085.38;;;8.66;83.51
17362;BME280;8798;51.938;4.348;2023-11-18T08:18:29;102074.03;;;8.63;83.83
17362;BME280;8798;51.938;4.348;2023-11-18T08:20:58;102075.75;;;8.64;83.61
17362;BME280;8798;51.938;4.348;2023-11-18T08:23:27;102079.28;;;8.64;83.80
17362;BME280;8798;51.938;4.348;2023-11-18T08:25:56;102081.97;;;8.64;83.67
17362;BME280;8798;51.938;4.348;2023-11-18T08:28:24;102073.94;;;8.64;84.02
17362;BME280;8798;51.938;4.348;2023-11-18T08:30:52;102066.88;;;8.63;84.10
17362;BME280;8798;51.938;4.348;2023-11-18T08:33:20;102065.13;;;8.62;83.86
17362;BME280;8798;51.938;4.348;2023-11-18T08:35:52;102052.81;;;8.59;83.82
17362;BME280;8798;51.938;4.348;2023-11-18T08:38:20;102051.13;;;8.58;83.61
17362;BME280;8798;51.938;4.348;2023-11-18T08:40:48;102054.56;;;8.60;84.16
17362;BME280;8798;51.938;4.348;2023-11-18T08:43:18;102036.97;;;8.56;83.82
17362;BME280;8798;51.938;4.348;2023-11-18T08:45:48;102028.19;;;8.54;84.00
17362;BME280;8798;51.938;4.348;2023-11-18T08:48:17;102019.31;;;8.54;83.73
17362;BME280;8798;51.938;4.348;2023-11-18T08:50:45;102021.13;;;8.53;84.10
17362;BME280;8798;51.938;4.348;2023-11-18T08:53:15;102025.59;;;8.53;84.05
17362;BME280;8798;51.938;4.348;2023-11-18T08:55:45;102019.41;;;8.52;84.17
17362;BME280;8798;51.938;4.348;2023-11-18T08:58:22;102015.97;;;8.50;84.28
17362;BME280;8798;51.938;4.348;2023-11-18T09:00:57;102013.19;;;8.52;84.19
17362;BME280;8798;51.938;4.348;2023-11-18T09:03:33;102014.19;;;8.51;84.43
17362;BME280;8798;51.938;4.348;2023-11-18T09:06:04;102018.56;;;8.52;83.93
17362;BME280;8798;51.938;4.348;2023-11-18T09:08:44;102024.53;;;8.55;83.96
17362;BME280;8798;51.938;4.348;2023-11-18T09:11:13;102034.41;;;8.55;84.27
17362;BME280;8798;51.938;4.348;2023-11-18T09:13:43;102034.16;;;8.58;84.38
17362;BME280;8798;51.938;4.348;2023-11-18T09:16:11;102041.25;;;8.59;84.55
17362;BME280;8798;51.938;4.348;2023-11-18T09:18:41;102059.69;;;8.64;84.33
17362;BME280;8798;51.938;4.348;2023-11-18T09:21:12;102064.81;;;8.67;83.99
17362;BME280;8798;51.938;4.348;2023-11-18T09:23:44;102069.31;;;8.66;84.42
17362;BME280;8798;51.938;4.348;2023-11-18T09:26:14;102072.75;;;8.68;84.86
17362;BME280;8798;51.938;4.348;2023-11-18T09:28:44;102067.50;;;8.67;84.63
17362;BME280;8798;51.938;4.348;2023-11-18T09:31:12;102051.53;;;8.65;84.46
17362;BME280;8798;51.938;4.348;2023-11-18T09:33:41;102056.88;;;8.65;84.51
17362;BME280;8798;51.938;4.348;2023-11-18T09:36:14;102066.50;;;8.68;84.72
17362;BME280;8798;51.938;4.348;2023-11-18T09:38:46;102062.03;;;8.68;84.99
17362;BME280;8798;51.938;4.348;2023-11-18T09:41:16;102059.22;;;8.70;84.83
17362;BME280;8798;51.938;4.348;2023-11-18T09:43:45;102069.00;;;8.71;84.87
17362;BME280;8798;51.938;4.348;2023-11-18T09:46:15;102071.53;;;8.72;84.85
17362;BME280;8798;51.938;4.348;2023-11-18T09:48:46;102067.03;;;8.73;85.05
17362;BME280;8798;51.938;4.348;2023-11-18T09:51:20;102063.50;;;8.72;84.92
17362;BME280;8798;51.938;4.348;2023-11-18T09:53:52;102079.38;;;8.75;85.18
17362;BME280;8798;51.938;4.348;2023-11-18T09:56:30;102090.72;;;8.79;85.30
17362;BME280;8798;51.938;4.348;2023-11-18T09:59:11;102088.06;;;8.79;85.58
17362;BME280;8798;51.938;4.348;2023-11-18T10:01:43;102086.22;;;8.79;85.20
17362;BME280;8798;51.938;4.348;2023-11-18T10:04:14;102088.81;;;8.81;85.62
17362;BME280;8798;51.938;4.348;2023-11-18T10:06:46;102082.47;;;8.82;85.71
17362;BME280;8798;51.938;4.348;2023-11-18T10:09:16;102103.81;;;8.83;85.84
17362;BME280;8798;51.938;4.348;2023-11-18T10:11:44;102098.31;;;8.85;85.95
17362;BME280;8798;51.938;4.348;2023-11-18T10:14:15;102106.25;;;8.87;86.23
17362;BME280;8798;51.938;4.348;2023-11-18T10:16:43;102108.84;;;8.88;86.32
17362;BME280;8798;51.938;4.348;2023-11-18T10:19:15;102102.50;;;8.89;86.32
17362;BME280;8798;51.938;4.348;2023-11-18T10:21:45;102107.00;;;8.89;86.72
17362;BME280;8798;51.938;4.348;2023-11-18T10:24:18;102100.81;;;8.88;86.64
17362;BME280;8798;51.938;4.348;2023-11-18T10:26:54;102087.50;;;8.87;86.40
17362;BME280;8798;51.938;4.348;2023-11-18T10:29:24;102090.09;;;8.88;86.49
17362;BME280;8798;51.938;4.348;2023-11-18T10:32:05;102077.75;;;8.86;86.67
17362;BME280;8798;51.938;4.348;2023-11-18T10:34:37;102059.19;;;8.82;87.05
17362;BME280;8798;51.938;4.348;2023-11-18T10:37:06;102050.44;;;8.80;86.78
17362;BME280;8798;51.938;4.348;2023-11-18T10:39:39;102037.16;;;8.79;86.64
17362;BME280;8798;51.938;4.348;2023-11-18T10:42:07;102038.00;;;8.79;86.92
17362;BME280;8798;51.938;4.348;2023-11-18T10:44:35;102032.63;;;8.79;87.07
17362;BME280;8798;51.938;4.348;2023-11-18T10:47:03;102035.22;;;8.81;87.09
17362;BME280;8798;51.938;4.348;2023-11-18T10:49:31;102058.88;;;8.87;87.31
17362;BME280;8798;51.938;4.348;2023-11-18T10:52:05;102060.72;;;8.87;87.15
17362;BME280;8798;51.938;4.348;2023-11-18T10:54:35;102049.13;;;8.86;87.67
17362;BME280;8798;51.938;4.348;2023-11-18T10:57:07;102039.38;;;8.85;87.48
17362;BME280;8798;51.938;4.348;2023-11-18T10:59:59;102032.22;;;8.86;87.72
17362;BME280;8798;51.938;4.348;2023-11-18T11:02:30;102030.38;;;8.86;87.87
17362;BME280;8798;51.938;4.348;2023-11-18T11:05:08;102031.97;;;8.89;87.93
17362;BME280;8798;51.938;4.348;2023-11-18T11:07:48;102027.56;;;8.88;87.87
17362;BME280;8798;51.938;4.348;2023-11-18T11:10:16;102035.50;;;8.89;87.80
17362;BME280;8798;51.938;4.348;2023-11-18T11:12:54;102035.41;;;8.91;88.09
17362;BME280;8798;51.938;4.348;2023-11-18T11:15:29;102030.06;;;8.91;88.06
17362;BME280;8798;51.938;4.348;2023-11-18T11:18:19;102030.91;;;8.91;88.23
17362;BME280;8798;51.938;4.348;2023-11-18T11:20:57;102025.53;;;8.91;88.39
17362;BME280;8798;51.938;4.348;2023-11-18T11:23:35;102020.94;;;8.93;88.32
17362;BME280;8798;51.938;4.348;2023-11-18T11:26:22;102027.03;;;8.95;88.26
17362;BME280;8798;51.938;4.348;2023-11-18T11:29:03;102030.44;;;8.97;88.31
17362;BME280;8798;51.938;4.348;2023-11-18T11:31:38;102035.69;;;8.99;88.67
17362;BME280;8798;51.938;4.348;2023-11-18T11:34:14;102033.78;;;9.01;88.90
17362;BME280;8798;51.938;4.348;2023-11-18T11:36:47;102038.06;;;9.03;89.00
17362;BME280;8798;51.938;4.348;2023-11-18T11:39:18;102045.00;;;9.06;88.71
17362;BME280;8798;51.938;4.348;2023-11-18T11:41:53;102043.06;;;9.08;88.81
17362;BME280;8798;51.938;4.348;2023-11-18T11:44:25;102044.78;;;9.09;88.71
17362;BME280;8798;51.938;4.348;2023-11-18T11:46:58;102037.47;;;9.11;89.28
17362;BME280;8798;51.938;4.348;2023-11-18T11:49:33;102036.50;;;9.12;88.92
17362;BME280;8798;51.938;4.348;2023-11-18T11:52:09;102044.44;;;9.14;89.20
17362;BME280;8798;51.938;4.348;2023-11-18T11:54:45;102041.53;;;9.17;88.90
17362;BME280;8798;51.938;4.348;2023-11-18T11:57:16;102048.63;;;9.18;88.89
17362;BME280;8798;51.938;4.348;2023-11-18T11:59:58;102029.00;;;9.17;89.23
17362;BME280;8798;51.938;4.348;2023-11-18T12:02:48;102030.72;;;9.18;89.30
17362;BME280;8798;51.938;4.348;2023-11-18T12:05:17;102019.97;;;9.18;89.70
17362;BME280;8798;51.938;4.348;2023-11-18T12:07:52;102018.16;;;9.19;89.61
17362;BME280;8798;51.938;4.348;2023-11-18T12:10:26;102021.59;;;9.21;89.33
17362;BME280;8798;51.938;4.348;2023-11-18T12:13:06;102025.84;;;9.23;89.56
17362;BME280;8798;51.938;4.348;2023-11-18T12:15:49;102024.88;;;9.24;89.45
17362;BME280;8798;51.938;4.348;2023-11-18T12:18:22;102018.56;;;9.25;89.58
17362;BME280;8798;51.938;4.348;2023-11-18T12:20:51;102006.00;;;9.26;89.77
17362;BME280;8798;51.938;4.348;2023-11-18T12:23:23;102014.91;;;9.26;90.05
17362;BME280;8798;51.938;4.348;2023-11-18T12:25:53;102012.88;;;9.30;89.84
17362;BME280;8798;51.938;4.348;2023-11-18T12:28:27;102003.00;;;9.31;89.87
17362;BME280;8798;51.938;4.348;2023-11-18T12:30:59;101994.19;;;9.29;89.86
17362;BME280;8798;51.938;4.348;2023-11-18T12:34:01;101981.63;;;9.29;89.88
17362;BME280;8798;51.938;4.348;2023-11-18T12:37:05;101975.44;;;9.29;90.17
17362;BME280;8798;51.938;4.348;2023-11-18T12:43:07;101960.31;;;9.28;90.36
17362;BME280;8798;51.938;4.348;2023-11-18T12:45:43;101955.81;;;9.28;89.98
17362;BME280;8798;51.938;4.348;2023-11-18T12:48:15;101954.81;;;9.29;90.41
17362;BME280;8798;51.938;4.348;2023-11-18T12:50:43;101953.75;;;9.32;90.43
17362;BME280;8798;51.938;4.348;2023-11-18T12:53:13;101950.97;;;9.33;90.42
17362;BME280;8798;51.938;4.348;2023-11-18T12:55:41;101947.28;;;9.34;90.63
17362;BME280;8798;51.938;4.348;2023-11-18T14:49:45;101941.22;;;10.01;92.26
17362;BME280;8798;51.938;4.348;2023-11-18T14:52:28;101948.16;;;10.04;92.20
17362;BME280;8798;51.938;4.348;2023-11-18T14:54:59;101951.47;;;10.07;92.03
17362;BME280;8798;51.938;4.348;2023-11-18T14:57:28;101941.34;;;10.11;92.71
17362;BME280;8798;51.938;4.348;2023-11-18T14:59:59;101949.28;;;10.12;92.16
17362;BME280;8798;51.938;4.348;2023-11-18T15:02:31;101950.88;;;10.15;92.54
17362;BME280;8798;51.938;4.348;2023-11-18T15:05:00;101950.63;;;10.18;92.53
17362;BME280;8798;51.938;4.348;2023-11-18T15:07:38;101956.63;;;10.22;92.29
17362;BME280;8798;51.938;4.348;2023-11-18T15:10:08;101953.09;;;10.21;92.37
17362;BME280;8798;51.938;4.348;2023-11-18T15:12:38;101943.06;;;10.23;92.60
17362;BME280;8798;51.938;4.348;2023-11-18T15:15:18;101937.56;;;10.25;92.58
17362;BME280;8798;51.938;4.348;2023-11-18T15:17:48;101935.72;;;10.25;93.11
17362;BME280;8798;51.938;4.348;2023-11-18T15:20:30;101936.47;;;10.27;92.59
17362;BME280;8798;51.938;4.348;2023-11-18T15:23:08;101926.50;;;10.29;92.49